Terminal Aerodrome Forecast
Issued by NWS

Home | Current Version | Previous Version | Graphics & Text | Print | Product List | Glossary On
Versions: 1 2 3 4 5 6 7 8 9 10 11 12 13 14 15 16 17 18 19 20 21 22
000
FTUS43 KBIS 272337
TAFDIK
TAF
KDIK 272337Z 2800/2824 33014G21KT 4SM RA BR VCTS SCT040CB OVC050
     FM280300 16011KT P6SM SCT035 BKN090
     FM280600 14006KT 3SM BR OVC009
     FM281400 27006KT P6SM BKN015
     FM281800 31010KT P6SM BKN050=

USA.gov is the U.S. government's official web portal to all federal, state and local government web resources and services.